x

Diamond Shoals (41025) Wave Buoy

1:50 - Sat 20th Sep 2014 All times are EDT. -4 hours from GMT.

  • Sig Wave height 6.9ft
  • Swell Direction
  • Peak Period 10s
  • Average Period 6s
  • Wind
    13mph, 18mph gusts
  • Ar Temp 80°f
  • Sea Pressure 1017.3mb
  • Diamond Shoals
  • Diamond Shoals

More Historic Weather Station data

Upgrade to MSW Pro to gain access to the past 30 days of data for over 8000 Wavebouys and Weather Stations around the globe.

Join Pro

Comparision Forecast

View Surf forecast
   
Sáb 09/20 1:50 7ft 10s 6s 13 18 mph 1017.3mb 80f
12:50 8ft 8s 7s 13 18 mph 1018.2mb 80f
11:50 7.5ft 10s 6s 16 18 mph 1018.5mb 81f
10:50 8.5ft 10s 7s 16 22 mph 1018.7mb 77f
9:50 8ft 9s 6s 20 25 mph 1018.7mb 79f
8:50 7ft 8s 6s 25 29 mph 1018.1mb 79f
7:50 7ft 8s 6s 22 27 mph 1018.5mb 80f
6:50 6ft 6s 5s 20 25 mph 1018.6mb 79f
5:50 6ft 8s 5s 20 25 mph 1018.6mb 78f
4:50 6ft 7s 5s 20 25 mph 1018.6mb 78f
3:50 6ft 8s 5s 18 22 mph 1019.2mb 77f
2:50 5.5ft 7s 5s 18 20 mph 1019.9mb 77f
1:50 6ft 6s 5s 20 25 mph 1020.6mb 76f
12:50 5.5ft 7s 5s 20 27 mph 1020.9mb 76f
Sex 09/19 11:50 5.5ft 7s 5s 20 25 mph 1021.5mb 76f
10:50 6ft 7s 5s 20 25 mph 1021.8mb 76f
9:50 6.5ft 7s 5s 20 25 mph 1021.9mb 76f
8:50 6ft 6s 5s 20 22 mph 1021.5mb 76f
7:50 6ft 7s 5s 22 27 mph 1021.2mb 75f
6:50 6ft 6s 5s 22 27 mph 1020.9mb 76f
5:50 6ft 6s 5s 22 29 mph 1020.8mb 76f
4:50 5.5ft 7s 5s 20 25 mph 1020.6mb 78f
3:50 5ft 6s 5s 18 25 mph 1020.6mb 78f
2:50 5ft 7s 5s 20 25 mph 1020.8mb 78f
1:50 6ft 7s 5s 20 25 mph 1020.9mb 78f
12:50 6ft 8s 6s 20 27 mph 1020.9mb 78f
11:50 6ft 7s 6s 20 27 mph 1020.9mb 78f
10:50 5.5ft 7s 5s 22 27 mph 1020.5mb 78f
9:50 5.5ft 6s 5s 18 25 mph 1020.5mb 77f
8:50 5.5ft 6s 5s 20 27 mph 1019.9mb 76f
7:50 5ft 7s 5s 20 25 mph 1019.2mb 77f
6:50 5ft 6s 5s 18 25 mph 1018.3mb 75f
5:50 5ft 6s 5s 20 27 mph 1017.7mb 74f
4:50 5ft 7s 5s 18 22 mph 1017.4mb 74f
3:50 4.5ft 6s 5s 18 27 mph 1016.9mb 74f
2:50 4.5ft 7s 6s 16 22 mph 1017.2mb 74f
1:50 4.5ft 8s 6s 16 20 mph 1017.4mb 73f
12:50 4.5ft 11s 6s 16 18 mph 1017.3mb 73f
Qui 09/18 11:50 4.5ft 8s 6s 13 18 mph 1017.4mb 73f
10:50 4.5ft 11s 6s 13 18 mph 1017.2mb 73f
9:50 4.5ft 12s 6s 13 20 mph 1016.9mb 73f
8:50 5ft 11s 6s 16 22 mph 1016.3mb 72f
7:50 5ft 6s 6s 20 25 mph 1015.7mb 72f
6:50 5ft 5s 6s 20 27 mph 1015.2mb 74f
5:50 5ft 12s 6s 20 25 mph 1015.1mb 74f
4:50 5ft 11s 6s 18 22 mph 1014.9mb 74f
3:50 5ft 11s 6s 18 22 mph 1014.9mb 74f
2:50 5.5ft 13s 6s 18 25 mph 1014.8mb 74f
1:50 5ft 12s 6s 18 22 mph 1015mb 74f
11:50 6ft 11s 6s 20 25 mph 1014.8mb 74f
10:50 6ft 13s 6s 20 25 mph 1014.6mb 75f
9:50 6ft 12s 6s 22 27 mph 1014.1mb 74f
8:50 6ft 13s 6s 20 25 mph 1013.4mb 75f
7:50 6ft 8s 6s 18 22 mph 1013mb 76f
6:50 6ft 8s 6s 20 22 mph 1012.7mb 75f
5:50 6ft 12s 7s 18 22 mph 1012.2mb 74f
4:50 6ft 14s 7s 18 22 mph 1011.7mb 74f
3:50 5.5ft 11s 6s 13 18 mph 1011.9mb 73f
2:50 6ft 14s 6s 16 18 mph 1011.9mb 73f
1:50 6ft 7s 6s 20 22 mph 1011.9mb 73f
12:50 6ft 12s 6s 20 25 mph 1012mb 75f
Qua 09/17 11:50 6ft 14s 6s 16 20 mph 1012.5mb 74f
10:50 6ft 14s 6s 16 22 mph 1012.7mb 74f
9:50 6.5ft 7s 6s 18 22 mph 1012.4mb 75f
8:50 6ft 7s 6s 22 29 mph 1012.3mb 75f
7:50 6ft 7s 6s 20 27 mph 1011.9mb 74f
6:50 6ft 7s 6s 18 22 mph 1011.7mb 75f
5:50 6ft 14s 6s 18 25 mph 1011.2mb 76f
4:50 5ft 14s 6s 20 27 mph 1011.2mb 74f
3:50 4.5ft 14s 6s 16 25 mph 1011.2mb 77f
2:50 5.5ft 14s 6s 13 18 mph 1011.9mb 78f
1:50 5ft 13s 6s 13 18 mph 1012.6mb 78f
12:50 5.5ft 7s 6s 16 20 mph 1013mb 75f
11:50 4.5ft 13s 6s 18 22 mph 1014.2mb 73f
10:50 5ft 14s 6s 11 13 mph 1014mb 73f
9:50 4.5ft 14s 6s 9 11 mph 1014.3mb 71f
8:50 4.5ft 15s 6s 16 22 mph 1013.4mb 72f
7:50 3.5ft 15s 6s 16 31 mph 1013mb 74f
6:50 3.5ft 15s 7s 11 18 mph 1013mb 77f
5:50 3.5ft 14s 7s 9 13 mph 1012.7mb 75f
4:50 3.5ft 15s 7s 7 11 mph 1013.2mb 75f
3:50 3ft 14s 6s 11 16 mph 1013mb 76f
2:50 2.5ft 13s 6s 9 13 mph 1013.5mb 76f
1:50 2.5ft 12s 7s 9 13 mph 1013.8mb 76f
12:50 2.5ft 12s 6s 7 11 mph 1014.2mb 75f
Ter 09/16 11:50 2.5ft 12s 7s 11 13 mph 1014.4mb 74f
10:50 2ft 12s 7s 2 4 mph 1014.6mb 77f
9:50 2ft 12s 7s 2 7 mph 1014.6mb 77f
8:50 2ft 8s 7s 2 4 mph 1014.5mb 76f
7:50 2.5ft 8s 7s 2 4 mph 1014.6mb 76f